sensor_id;sensor_type;location;lat;lon;timestamp;P1;durP1;ratioP1;P2;durP2;ratioP2
57231;SDS011;43488;46.934;8.276;2022-10-31T00:01:21;568.38;;;283.05;;
57231;SDS011;43488;46.934;8.276;2022-10-31T00:03:55;578.40;;;289.00;;
57231;SDS011;43488;46.934;8.276;2022-10-31T00:06:22;576.45;;;298.23;;
57231;SDS011;43488;46.934;8.276;2022-10-31T00:08:55;569.83;;;373.63;;
57231;SDS011;43488;46.934;8.276;2022-10-31T00:11:25;571.05;;;377.23;;
57231;SDS011;43488;46.934;8.276;2022-10-31T00:13:53;580.75;;;294.20;;
57231;SDS011;43488;46.934;8.276;2022-10-31T00:16:22;577.63;;;290.77;;
57231;SDS011;43488;46.934;8.276;2022-10-31T00:18:52;569.90;;;286.15;;
57231;SDS011;43488;46.934;8.276;2022-10-31T00:21:23;575.95;;;295.75;;
57231;SDS011;43488;46.934;8.276;2022-10-31T00:23:52;566.47;;;368.42;;
57231;SDS011;43488;46.934;8.276;2022-10-31T00:26:20;569.95;;;382.27;;
57231;SDS011;43488;46.934;8.276;2022-10-31T00:28:47;562.45;;;365.00;;
57231;SDS011;43488;46.934;8.276;2022-10-31T00:31:16;565.92;;;386.83;;
57231;SDS011;43488;46.934;8.276;2022-10-31T00:33:43;578.30;;;301.73;;
57231;SDS011;43488;46.934;8.276;2022-10-31T00:36:12;582.22;;;298.45;;
57231;SDS011;43488;46.934;8.276;2022-10-31T00:38:43;577.25;;;297.83;;
57231;SDS011;43488;46.934;8.276;2022-10-31T00:41:11;572.35;;;290.13;;
57231;SDS011;43488;46.934;8.276;2022-10-31T00:43:41;573.35;;;291.13;;
57231;SDS011;43488;46.934;8.276;2022-10-31T00:46:10;566.88;;;367.65;;
57231;SDS011;43488;46.934;8.276;2022-10-31T00:48:40;577.75;;;305.85;;
57231;SDS011;43488;46.934;8.276;2022-10-31T00:51:10;567.92;;;373.80;;
57231;SDS011;43488;46.934;8.276;2022-10-31T00:53:37;577.17;;;286.58;;
57231;SDS011;43488;46.934;8.276;2022-10-31T00:56:04;571.63;;;281.85;;
57231;SDS011;43488;46.934;8.276;2022-10-31T00:58:32;570.97;;;289.48;;
57231;SDS011;43488;46.934;8.276;2022-10-31T01:01:00;567.00;;;370.60;;
57231;SDS011;43488;46.934;8.276;2022-10-31T01:03:29;573.88;;;291.90;;
57231;SDS011;43488;46.934;8.276;2022-10-31T01:06:03;580.60;;;296.85;;
57231;SDS011;43488;46.934;8.276;2022-10-31T01:08:39;572.50;;;290.90;;
57231;SDS011;43488;46.934;8.276;2022-10-31T01:11:09;558.00;;;361.70;;
57231;SDS011;43488;46.934;8.276;2022-10-31T01:13:41;564.42;;;368.40;;
57231;SDS011;43488;46.934;8.276;2022-10-31T01:16:11;579.47;;;294.10;;
57231;SDS011;43488;46.934;8.276;2022-10-31T01:18:42;575.15;;;383.60;;
57231;SDS011;43488;46.934;8.276;2022-10-31T01:21:14;562.45;;;369.52;;
57231;SDS011;43488;46.934;8.276;2022-10-31T01:23:48;578.17;;;299.52;;
57231;SDS011;43488;46.934;8.276;2022-10-31T01:26:17;567.42;;;375.50;;
57231;SDS011;43488;46.934;8.276;2022-10-31T01:28:52;579.78;;;295.95;;
57231;SDS011;43488;46.934;8.276;2022-10-31T01:31:23;575.40;;;296.08;;
57231;SDS011;43488;46.934;8.276;2022-10-31T01:33:54;574.25;;;287.63;;
57231;SDS011;43488;46.934;8.276;2022-10-31T01:39:03;566.67;;;286.77;;
57231;SDS011;43488;46.934;8.276;2022-10-31T01:41:39;570.53;;;376.98;;
57231;SDS011;43488;46.934;8.276;2022-10-31T01:46:59;568.53;;;391.15;;
57231;SDS011;43488;46.934;8.276;2022-10-31T01:49:46;572.72;;;282.13;;
57231;SDS011;43488;46.934;8.276;2022-10-31T01:54:52;563.53;;;380.90;;
57231;SDS011;43488;46.934;8.276;2022-10-31T01:57:48;559.15;;;364.42;;
57231;SDS011;43488;46.934;8.276;2022-10-31T02:00:22;557.50;;;360.33;;
57231;SDS011;43488;46.934;8.276;2022-10-31T02:02:50;571.15;;;383.23;;
57231;SDS011;43488;46.934;8.276;2022-10-31T02:05:19;563.00;;;366.80;;
57231;SDS011;43488;46.934;8.276;2022-10-31T02:10:48;571.33;;;397.13;;
57231;SDS011;43488;46.934;8.276;2022-10-31T02:13:16;564.42;;;384.45;;
57231;SDS011;43488;46.934;8.276;2022-10-31T02:15:45;566.45;;;277.55;;
57231;SDS011;43488;46.934;8.276;2022-10-31T02:18:17;564.15;;;381.63;;
57231;SDS011;43488;46.934;8.276;2022-10-31T02:24:32;564.20;;;375.40;;
57231;SDS011;43488;46.934;8.276;2022-10-31T02:30:36;573.08;;;292.13;;
57231;SDS011;43488;46.934;8.276;2022-10-31T02:36:05;569.80;;;291.75;;
57231;SDS011;43488;46.934;8.276;2022-10-31T02:38:46;568.10;;;366.02;;
57231;SDS011;43488;46.934;8.276;2022-10-31T02:41:37;583.00;;;302.60;;
57231;SDS011;43488;46.934;8.276;2022-10-31T02:44:16;570.35;;;393.38;;
57231;SDS011;43488;46.934;8.276;2022-10-31T02:47:06;564.20;;;389.55;;
57231;SDS011;43488;46.934;8.276;2022-10-31T02:52:28;571.03;;;377.50;;
57231;SDS011;43488;46.934;8.276;2022-10-31T02:54:58;558.58;;;375.38;;
57231;SDS011;43488;46.934;8.276;2022-10-31T02:57:35;566.95;;;391.15;;
57231;SDS011;43488;46.934;8.276;2022-10-31T03:00:05;567.17;;;366.85;;
57231;SDS011;43488;46.934;8.276;2022-10-31T03:02:41;573.58;;;292.10;;
57231;SDS011;43488;46.934;8.276;2022-10-31T03:11:10;573.20;;;288.75;;
57231;SDS011;43488;46.934;8.276;2022-10-31T03:13:51;578.35;;;310.92;;
57231;SDS011;43488;46.934;8.276;2022-10-31T03:19:24;578.63;;;302.73;;
57231;SDS011;43488;46.934;8.276;2022-10-31T03:22:19;577.17;;;391.45;;
57231;SDS011;43488;46.934;8.276;2022-10-31T03:24:53;558.42;;;364.42;;
57231;SDS011;43488;46.934;8.276;2022-10-31T03:27:25;565.85;;;390.75;;
57231;SDS011;43488;46.934;8.276;2022-10-31T03:29:57;558.28;;;382.58;;
57231;SDS011;43488;46.934;8.276;2022-10-31T03:32:34;565.30;;;374.63;;
57231;SDS011;43488;46.934;8.276;2022-10-31T03:35:08;561.22;;;380.45;;
57231;SDS011;43488;46.934;8.276;2022-10-31T03:37:40;564.53;;;286.48;;
57231;SDS011;43488;46.934;8.276;2022-10-31T03:40:09;561.42;;;384.10;;
57231;SDS011;43488;46.934;8.276;2022-10-31T03:42:40;559.03;;;374.60;;
57231;SDS011;43488;46.934;8.276;2022-10-31T03:45:14;554.17;;;371.70;;
57231;SDS011;43488;46.934;8.276;2022-10-31T03:47:56;557.22;;;379.92;;
57231;SDS011;43488;46.934;8.276;2022-10-31T03:50:29;567.58;;;294.38;;
57231;SDS011;43488;46.934;8.276;2022-10-31T03:59:07;553.78;;;373.67;;
57231;SDS011;43488;46.934;8.276;2022-10-31T04:01:45;557.90;;;372.98;;
57231;SDS011;43488;46.934;8.276;2022-10-31T04:04:18;561.45;;;376.15;;
57231;SDS011;43488;46.934;8.276;2022-10-31T04:06:46;543.10;;;359.45;;
57231;SDS011;43488;46.934;8.276;2022-10-31T04:09:16;569.83;;;302.00;;
57231;SDS011;43488;46.934;8.276;2022-10-31T04:11:45;561.45;;;379.23;;
57231;SDS011;43488;46.934;8.276;2022-10-31T04:14:19;565.47;;;377.08;;
57231;SDS011;43488;46.934;8.276;2022-10-31T04:16:50;560.30;;;371.20;;
57231;SDS011;43488;46.934;8.276;2022-10-31T04:19:17;572.88;;;297.25;;
57231;SDS011;43488;46.934;8.276;2022-10-31T04:21:45;561.63;;;372.05;;
57231;SDS011;43488;46.934;8.276;2022-10-31T04:24:12;564.10;;;371.00;;
57231;SDS011;43488;46.934;8.276;2022-10-31T04:26:39;565.15;;;374.70;;
57231;SDS011;43488;46.934;8.276;2022-10-31T04:29:06;576.85;;;293.92;;
57231;SDS011;43488;46.934;8.276;2022-10-31T04:31:34;569.00;;;389.90;;
57231;SDS011;43488;46.934;8.276;2022-10-31T04:34:01;564.08;;;375.27;;
57231;SDS011;43488;46.934;8.276;2022-10-31T04:36:28;573.38;;;297.85;;
57231;SDS011;43488;46.934;8.276;2022-10-31T04:38:55;572.40;;;291.92;;
57231;SDS011;43488;46.934;8.276;2022-10-31T04:41:23;581.63;;;301.00;;
57231;SDS011;43488;46.934;8.276;2022-10-31T04:43:50;569.20;;;284.13;;
57231;SDS011;43488;46.934;8.276;2022-10-31T04:46:18;564.58;;;375.70;;
57231;SDS011;43488;46.934;8.276;2022-10-31T04:48:45;563.17;;;372.80;;
57231;SDS011;43488;46.934;8.276;2022-10-31T04:51:12;578.70;;;298.88;;
57231;SDS011;43488;46.934;8.276;2022-10-31T04:53:40;563.58;;;375.20;;
57231;SDS011;43488;46.934;8.276;2022-10-31T04:56:07;579.47;;;298.30;;
57231;SDS011;43488;46.934;8.276;2022-10-31T04:58:34;569.75;;;386.38;;
57231;SDS011;43488;46.934;8.276;2022-10-31T05:01:01;562.80;;;380.08;;
57231;SDS011;43488;46.934;8.276;2022-10-31T05:03:28;564.45;;;374.40;;
57231;SDS011;43488;46.934;8.276;2022-10-31T05:05:56;574.85;;;291.75;;
57231;SDS011;43488;46.934;8.276;2022-10-31T05:08:23;575.40;;;390.67;;
57231;SDS011;43488;46.934;8.276;2022-10-31T05:10:50;572.20;;;294.75;;
57231;SDS011;43488;46.934;8.276;2022-10-31T05:13:18;565.67;;;379.02;;
57231;SDS011;43488;46.934;8.276;2022-10-31T05:15:46;573.60;;;392.02;;
57231;SDS011;43488;46.934;8.276;2022-10-31T05:18:13;573.22;;;286.63;;
57231;SDS011;43488;46.934;8.276;2022-10-31T05:20:41;576.92;;;294.50;;
57231;SDS011;43488;46.934;8.276;2022-10-31T05:23:09;573.50;;;288.05;;
57231;SDS011;43488;46.934;8.276;2022-10-31T05:25:36;569.45;;;387.77;;
57231;SDS011;43488;46.934;8.276;2022-10-31T05:28:07;566.65;;;286.85;;
57231;SDS011;43488;46.934;8.276;2022-10-31T05:30:34;560.20;;;368.40;;
57231;SDS011;43488;46.934;8.276;2022-10-31T05:33:02;558.00;;;365.33;;
57231;SDS011;43488;46.934;8.276;2022-10-31T05:35:31;563.20;;;376.88;;
57231;SDS011;43488;46.934;8.276;2022-10-31T05:37:59;574.53;;;291.58;;
57231;SDS011;43488;46.934;8.276;2022-10-31T05:40:28;575.30;;;295.27;;
57231;SDS011;43488;46.934;8.276;2022-10-31T05:42:56;559.85;;;371.10;;
57231;SDS011;43488;46.934;8.276;2022-10-31T05:45:27;580.28;;;305.35;;
57231;SDS011;43488;46.934;8.276;2022-10-31T05:47:55;572.88;;;297.83;;
57231;SDS011;43488;46.934;8.276;2022-10-31T05:50:28;566.60;;;383.73;;
57231;SDS011;43488;46.934;8.276;2022-10-31T05:52:58;565.33;;;282.45;;
57231;SDS011;43488;46.934;8.276;2022-10-31T05:55:30;575.17;;;297.50;;
57231;SDS011;43488;46.934;8.276;2022-10-31T05:57:59;567.75;;;375.95;;
57231;SDS011;43488;46.934;8.276;2022-10-31T06:00:26;564.78;;;280.85;;
57231;SDS011;43488;46.934;8.276;2022-10-31T06:03:01;555.97;;;270.08;;
57231;SDS011;43488;46.934;8.276;2022-10-31T06:05:31;509.40;;;332.48;;
57231;SDS011;43488;46.934;8.276;2022-10-31T06:07:59;532.35;;;243.82;;
57231;SDS011;43488;46.934;8.276;2022-10-31T06:10:27;537.33;;;254.20;;
57231;SDS011;43488;46.934;8.276;2022-10-31T06:12:54;536.08;;;256.55;;
57231;SDS011;43488;46.934;8.276;2022-10-31T06:15:22;534.47;;;247.20;;
57231;SDS011;43488;46.934;8.276;2022-10-31T06:17:59;539.45;;;255.48;;
57231;SDS011;43488;46.934;8.276;2022-10-31T06:20:29;508.25;;;325.98;;
57231;SDS011;43488;46.934;8.276;2022-10-31T06:22:57;537.35;;;256.02;;
57231;SDS011;43488;46.934;8.276;2022-10-31T06:25:25;514.33;;;336.55;;
57231;SDS011;43488;46.934;8.276;2022-10-31T06:27:52;505.00;;;329.33;;
57231;SDS011;43488;46.934;8.276;2022-10-31T06:30:20;517.22;;;338.85;;
57231;SDS011;43488;46.934;8.276;2022-10-31T06:32:47;500.95;;;321.92;;
57231;SDS011;43488;46.934;8.276;2022-10-31T06:35:16;498.50;;;321.50;;
57231;SDS011;43488;46.934;8.276;2022-10-31T06:37:50;509.52;;;329.90;;
57231;SDS011;43488;46.934;8.276;2022-10-31T06:40:18;541.67;;;257.88;;
57231;SDS011;43488;46.934;8.276;2022-10-31T06:42:46;532.88;;;247.95;;
57231;SDS011;43488;46.934;8.276;2022-10-31T06:45:13;507.08;;;329.17;;
57231;SDS011;43488;46.934;8.276;2022-10-31T06:47:41;539.92;;;249.95;;
57231;SDS011;43488;46.934;8.276;2022-10-31T06:50:09;540.95;;;251.82;;
57231;SDS011;43488;46.934;8.276;2022-10-31T06:52:37;510.08;;;329.48;;
57231;SDS011;43488;46.934;8.276;2022-10-31T06:55:04;543.25;;;254.43;;
57231;SDS011;43488;46.934;8.276;2022-10-31T06:57:32;520.80;;;351.40;;
57231;SDS011;43488;46.934;8.276;2022-10-31T06:59:59;539.67;;;250.68;;
57231;SDS011;43488;46.934;8.276;2022-10-31T07:02:26;540.78;;;253.18;;
57231;SDS011;43488;46.934;8.276;2022-10-31T07:04:54;532.28;;;367.83;;
57231;SDS011;43488;46.934;8.276;2022-10-31T07:07:22;525.42;;;355.38;;
57231;SDS011;43488;46.934;8.276;2022-10-31T07:09:50;538.58;;;255.05;;
57231;SDS011;43488;46.934;8.276;2022-10-31T07:12:17;533.67;;;361.75;;
57231;SDS011;43488;46.934;8.276;2022-10-31T07:14:45;531.00;;;360.52;;
57231;SDS011;43488;46.934;8.276;2022-10-31T07:17:12;546.53;;;270.38;;
57231;SDS011;43488;46.934;8.276;2022-10-31T07:19:40;550.90;;;278.85;;
57231;SDS011;43488;46.934;8.276;2022-10-31T07:22:07;553.30;;;260.73;;
57231;SDS011;43488;46.934;8.276;2022-10-31T07:24:34;554.40;;;272.48;;
57231;SDS011;43488;46.934;8.276;2022-10-31T07:27:02;544.45;;;259.30;;
57231;SDS011;43488;46.934;8.276;2022-10-31T07:29:30;547.83;;;367.52;;
57231;SDS011;43488;46.934;8.276;2022-10-31T07:31:57;556.83;;;273.25;;
57231;SDS011;43488;46.934;8.276;2022-10-31T07:34:24;543.13;;;371.63;;
57231;SDS011;43488;46.934;8.276;2022-10-31T07:36:52;546.17;;;359.15;;
57231;SDS011;43488;46.934;8.276;2022-10-31T07:39:19;547.22;;;377.42;;
57231;SDS011;43488;46.934;8.276;2022-10-31T07:41:46;561.05;;;280.27;;
57231;SDS011;43488;46.934;8.276;2022-10-31T07:44:13;561.42;;;281.55;;
57231;SDS011;43488;46.934;8.276;2022-10-31T07:46:41;541.10;;;350.05;;
57231;SDS011;43488;46.934;8.276;2022-10-31T07:49:08;542.50;;;351.58;;
57231;SDS011;43488;46.934;8.276;2022-10-31T07:51:36;550.10;;;355.77;;
57231;SDS011;43488;46.934;8.276;2022-10-31T07:54:03;561.08;;;282.25;;
57231;SDS011;43488;46.934;8.276;2022-10-31T07:56:31;558.78;;;277.50;;
57231;SDS011;43488;46.934;8.276;2022-10-31T07:58:58;556.47;;;368.80;;
57231;SDS011;43488;46.934;8.276;2022-10-31T08:01:26;563.33;;;278.98;;
57231;SDS011;43488;46.934;8.276;2022-10-31T08:03:54;561.63;;;371.27;;
57231;SDS011;43488;46.934;8.276;2022-10-31T08:06:22;553.30;;;366.33;;
57231;SDS011;43488;46.934;8.276;2022-10-31T08:08:49;570.47;;;282.35;;
57231;SDS011;43488;46.934;8.276;2022-10-31T08:11:17;571.63;;;282.10;;
57231;SDS011;43488;46.934;8.276;2022-10-31T08:13:46;554.60;;;366.20;;
57231;SDS011;43488;46.934;8.276;2022-10-31T08:16:13;558.95;;;369.13;;
57231;SDS011;43488;46.934;8.276;2022-10-31T08:18:40;579.00;;;298.63;;
57231;SDS011;43488;46.934;8.276;2022-10-31T08:21:07;565.65;;;378.60;;
57231;SDS011;43488;46.934;8.276;2022-10-31T08:23:35;558.70;;;370.77;;
57231;SDS011;43488;46.934;8.276;2022-10-31T08:26:02;556.95;;;363.70;;
57231;SDS011;43488;46.934;8.276;2022-10-31T08:28:33;576.55;;;289.58;;
57231;SDS011;43488;46.934;8.276;2022-10-31T08:31:00;571.10;;;287.10;;
57231;SDS011;43488;46.934;8.276;2022-10-31T08:33:27;574.90;;;300.05;;
57231;SDS011;43488;46.934;8.276;2022-10-31T08:35:55;575.33;;;286.02;;
57231;SDS011;43488;46.934;8.276;2022-10-31T08:38:24;564.60;;;279.17;;
57231;SDS011;43488;46.934;8.276;2022-10-31T08:40:52;564.80;;;371.42;;
57231;SDS011;43488;46.934;8.276;2022-10-31T08:43:19;581.08;;;296.75;;
57231;SDS011;43488;46.934;8.276;2022-10-31T08:45:49;567.38;;;281.77;;
57231;SDS011;43488;46.934;8.276;2022-10-31T08:48:19;569.53;;;286.98;;
57231;SDS011;43488;46.934;8.276;2022-10-31T08:50:47;576.78;;;395.33;;
57231;SDS011;43488;46.934;8.276;2022-10-31T08:53:15;571.72;;;288.25;;
57231;SDS011;43488;46.934;8.276;2022-10-31T08:55:46;571.58;;;287.52;;
57231;SDS011;43488;46.934;8.276;2022-10-31T08:58:14;584.92;;;302.77;;
57231;SDS011;43488;46.934;8.276;2022-10-31T09:00:44;583.97;;;298.83;;
57231;SDS011;43488;46.934;8.276;2022-10-31T09:03:18;573.22;;;291.00;;
57231;SDS011;43488;46.934;8.276;2022-10-31T09:05:54;580.25;;;293.88;;
57231;SDS011;43488;46.934;8.276;2022-10-31T09:08:23;566.22;;;374.27;;
57231;SDS011;43488;46.934;8.276;2022-10-31T09:10:51;582.30;;;305.90;;
57231;SDS011;43488;46.934;8.276;2022-10-31T09:13:23;576.97;;;380.43;;
57231;SDS011;43488;46.934;8.276;2022-10-31T09:15:51;566.80;;;376.00;;
57231;SDS011;43488;46.934;8.276;2022-10-31T09:18:19;586.58;;;307.20;;
57231;SDS011;43488;46.934;8.276;2022-10-31T09:20:49;575.67;;;389.08;;
57231;SDS011;43488;46.934;8.276;2022-10-31T09:23:18;577.95;;;288.88;;
57231;SDS011;43488;46.934;8.276;2022-10-31T09:25:48;582.22;;;307.15;;
57231;SDS011;43488;46.934;8.276;2022-10-31T09:28:18;580.85;;;305.52;;
57231;SDS011;43488;46.934;8.276;2022-10-31T09:30:48;567.67;;;377.90;;
57231;SDS011;43488;46.934;8.276;2022-10-31T09:33:17;568.63;;;376.48;;
57231;SDS011;43488;46.934;8.276;2022-10-31T09:35:45;566.78;;;376.27;;
57231;SDS011;43488;46.934;8.276;2022-10-31T09:38:17;574.97;;;392.70;;
57231;SDS011;43488;46.934;8.276;2022-10-31T09:40:51;577.60;;;296.02;;
57231;SDS011;43488;46.934;8.276;2022-10-31T09:43:42;571.00;;;285.90;;
57231;SDS011;43488;46.934;8.276;2022-10-31T09:46:38;569.45;;;380.65;;
57231;SDS011;43488;46.934;8.276;2022-10-31T09:52:27;563.40;;;369.40;;
57231;SDS011;43488;46.934;8.276;2022-10-31T09:57:35;577.03;;;388.45;;
57231;SDS011;43488;46.934;8.276;2022-10-31T10:00:04;591.15;;;313.95;;
57231;SDS011;43488;46.934;8.276;2022-10-31T10:05:10;575.67;;;384.75;;
57231;SDS011;43488;46.934;8.276;2022-10-31T10:08:01;587.80;;;307.42;;
57231;SDS011;43488;46.934;8.276;2022-10-31T10:10:55;588.50;;;311.25;;
57231;SDS011;43488;46.934;8.276;2022-10-31T10:23:27;567.55;;;376.27;;
57231;SDS011;43488;46.934;8.276;2022-10-31T10:26:26;573.40;;;381.15;;
57231;SDS011;43488;46.934;8.276;2022-10-31T10:32:41;574.38;;;388.13;;
57231;SDS011;43488;46.934;8.276;2022-10-31T10:35:26;578.00;;;394.80;;
57231;SDS011;43488;46.934;8.276;2022-10-31T10:40:46;595.65;;;317.63;;
57231;SDS011;43488;46.934;8.276;2022-10-31T10:43:24;588.35;;;302.95;;
57231;SDS011;43488;46.934;8.276;2022-10-31T10:46:13;582.97;;;305.90;;
57231;SDS011;43488;46.934;8.276;2022-10-31T10:52:37;581.47;;;299.27;;
57231;SDS011;43488;46.934;8.276;2022-10-31T10:58:38;598.70;;;322.52;;
57231;SDS011;43488;46.934;8.276;2022-10-31T11:01:14;594.50;;;307.55;;
57231;SDS011;43488;46.934;8.276;2022-10-31T11:03:42;594.53;;;310.77;;
57231;SDS011;43488;46.934;8.276;2022-10-31T11:06:17;586.90;;;408.27;;
57231;SDS011;43488;46.934;8.276;2022-10-31T11:08:48;581.60;;;399.52;;
57231;SDS011;43488;46.934;8.276;2022-10-31T11:11:28;580.78;;;374.52;;
57231;SDS011;43488;46.934;8.276;2022-10-31T11:14:01;588.65;;;386.70;;
57231;SDS011;43488;46.934;8.276;2022-10-31T11:16:40;599.42;;;317.92;;
57231;SDS011;43488;46.934;8.276;2022-10-31T11:19:20;587.83;;;406.92;;
57231;SDS011;43488;46.934;8.276;2022-10-31T11:21:53;597.17;;;310.60;;
57231;SDS011;43488;46.934;8.276;2022-10-31T11:24:22;584.10;;;376.63;;
57231;SDS011;43488;46.934;8.276;2022-10-31T11:27:05;596.17;;;307.17;;
57231;SDS011;43488;46.934;8.276;2022-10-31T11:29:43;599.58;;;316.67;;
57231;SDS011;43488;46.934;8.276;2022-10-31T11:32:18;600.15;;;322.90;;
57231;SDS011;43488;46.934;8.276;2022-10-31T11:34:51;590.70;;;409.85;;
57231;SDS011;43488;46.934;8.276;2022-10-31T11:37:35;599.60;;;322.95;;
57231;SDS011;43488;46.934;8.276;2022-10-31T11:40:14;605.58;;;327.65;;
57231;SDS011;43488;46.934;8.276;2022-10-31T11:42:52;597.75;;;398.90;;
57231;SDS011;43488;46.934;8.276;2022-10-31T11:47:51;633.42;;;371.98;;
57231;SDS011;43488;46.934;8.276;2022-10-31T11:50:22;638.83;;;474.30;;
57231;SDS011;43488;46.934;8.276;2022-10-31T11:52:55;631.13;;;460.60;;
57231;SDS011;43488;46.934;8.276;2022-10-31T11:55:36;628.78;;;468.88;;
57231;SDS011;43488;46.934;8.276;2022-10-31T11:58:23;625.25;;;444.58;;
57231;SDS011;43488;46.934;8.276;2022-10-31T12:00:53;617.03;;;438.58;;
57231;SDS011;43488;46.934;8.276;2022-10-31T12:06:00;611.53;;;417.65;;
57231;SDS011;43488;46.934;8.276;2022-10-31T12:08:34;627.42;;;368.95;;
57231;SDS011;43488;46.934;8.276;2022-10-31T12:11:51;644.13;;;417.27;;
57231;SDS011;43488;46.934;8.276;2022-10-31T12:23:33;681.20;;;486.77;;
57231;SDS011;43488;46.934;8.276;2022-10-31T12:32:38;684.33;;;561.92;;
57231;SDS011;43488;46.934;8.276;2022-10-31T12:39:19;704.50;;;628.05;;
57231;SDS011;43488;46.934;8.276;2022-10-31T12:42:17;682.05;;;525.78;;
57231;SDS011;43488;46.934;8.276;2022-10-31T12:45:16;679.28;;;588.47;;
57231;SDS011;43488;46.934;8.276;2022-10-31T12:56:46;716.95;;;640.28;;
57231;SDS011;43488;46.934;8.276;2022-10-31T12:59:39;750.50;;;673.17;;
57231;SDS011;43488;46.934;8.276;2022-10-31T13:04:50;697.90;;;624.17;;
57231;SDS011;43488;46.934;8.276;2022-10-31T13:07:41;732.65;;;656.75;;
57231;SDS011;43488;46.934;8.276;2022-10-31T13:12:58;715.08;;;639.90;;
57231;SDS011;43488;46.934;8.276;2022-10-31T13:15:52;696.45;;;617.25;;
57231;SDS011;43488;46.934;8.276;2022-10-31T13:18:29;702.95;;;627.58;;
57231;SDS011;43488;46.934;8.276;2022-10-31T13:21:23;725.00;;;648.05;;
57231;SDS011;43488;46.934;8.276;2022-10-31T13:24:02;720.13;;;643.50;;
57231;SDS011;43488;46.934;8.276;2022-10-31T13:26:37;714.60;;;638.88;;
57231;SDS011;43488;46.934;8.276;2022-10-31T13:29:33;676.33;;;602.63;;
57231;SDS011;43488;46.934;8.276;2022-10-31T13:32:09;677.75;;;603.90;;
57231;SDS011;43488;46.934;8.276;2022-10-31T13:34:39;676.10;;;602.30;;
57231;SDS011;43488;46.934;8.276;2022-10-31T13:37:18;680.53;;;606.72;;
57231;SDS011;43488;46.934;8.276;2022-10-31T13:48:16;690.05;;;614.78;;
57231;SDS011;43488;46.934;8.276;2022-10-31T13:50:57;677.75;;;603.72;;
57231;SDS011;43488;46.934;8.276;2022-10-31T13:53:39;684.40;;;610.08;;
57231;SDS011;43488;46.934;8.276;2022-10-31T13:56:21;701.75;;;626.03;;
57231;SDS011;43488;46.934;8.276;2022-10-31T13:59:15;668.60;;;593.78;;
57231;SDS011;43488;46.934;8.276;2022-10-31T14:01:51;670.60;;;582.55;;
57231;SDS011;43488;46.934;8.276;2022-10-31T14:04:24;664.58;;;549.53;;
57231;SDS011;43488;46.934;8.276;2022-10-31T14:07:12;647.13;;;520.22;;
57231;SDS011;43488;46.934;8.276;2022-10-31T14:10:06;649.20;;;516.35;;
57231;SDS011;43488;46.934;8.276;2022-10-31T14:13:03;650.97;;;526.15;;
57231;SDS011;43488;46.934;8.276;2022-10-31T14:15:55;671.70;;;558.13;;
57231;SDS011;43488;46.934;8.276;2022-10-31T14:18:33;663.25;;;534.58;;
57231;SDS011;43488;46.934;8.276;2022-10-31T14:23:52;645.65;;;521.15;;
57231;SDS011;43488;46.934;8.276;2022-10-31T14:32:26;662.13;;;515.80;;
57231;SDS011;43488;46.934;8.276;2022-10-31T14:34:42;668.67;;;541.47;;
57231;SDS011;43488;46.934;8.276;2022-10-31T14:40:21;648.03;;;541.42;;
57231;SDS011;43488;46.934;8.276;2022-10-31T14:51:44;664.20;;;512.58;;
57231;SDS011;43488;46.934;8.276;2022-10-31T14:54:15;663.15;;;507.67;;
57231;SDS011;43488;46.934;8.276;2022-10-31T14:56:55;663.20;;;508.98;;
57231;SDS011;43488;46.934;8.276;2022-10-31T14:59:44;647.55;;;527.55;;
57231;SDS011;43488;46.934;8.276;2022-10-31T15:02:19;642.45;;;505.80;;
57231;SDS011;43488;46.934;8.276;2022-10-31T15:05:07;644.45;;;513.95;;
57231;SDS011;43488;46.934;8.276;2022-10-31T15:07:47;643.28;;;506.05;;
57231;SDS011;43488;46.934;8.276;2022-10-31T15:10:24;660.38;;;485.05;;
57231;SDS011;43488;46.934;8.276;2022-10-31T15:13:08;639.47;;;484.00;;
57231;SDS011;43488;46.934;8.276;2022-10-31T15:15:44;651.33;;;438.42;;
57231;SDS011;43488;46.934;8.276;2022-10-31T15:18:17;636.97;;;452.55;;
57231;SDS011;43488;46.934;8.276;2022-10-31T15:20:52;639.38;;;466.42;;
57231;SDS011;43488;46.934;8.276;2022-10-31T15:23:27;644.90;;;446.40;;
57231;SDS011;43488;46.934;8.276;2022-10-31T15:25:57;664.00;;;449.35;;
57231;SDS011;43488;46.934;8.276;2022-10-31T15:28:30;671.72;;;440.20;;
57231;SDS011;43488;46.934;8.276;2022-10-31T15:30:59;667.20;;;388.75;;
57231;SDS011;43488;46.934;8.276;2022-10-31T15:33:29;664.97;;;443.70;;
57231;SDS011;43488;46.934;8.276;2022-10-31T15:36:19;661.53;;;381.85;;
57231;SDS011;43488;46.934;8.276;2022-10-31T15:38:49;663.35;;;445.58;;
57231;SDS011;43488;46.934;8.276;2022-10-31T15:41:26;658.03;;;369.00;;
57231;SDS011;43488;46.934;8.276;2022-10-31T15:44:26;655.20;;;365.75;;
57231;SDS011;43488;46.934;8.276;2022-10-31T15:47:04;656.05;;;431.67;;
57231;SDS011;43488;46.934;8.276;2022-10-31T15:49:48;649.25;;;362.08;;
57231;SDS011;43488;46.934;8.276;2022-10-31T15:55:14;647.92;;;351.58;;
57231;SDS011;43488;46.934;8.276;2022-10-31T15:57:43;639.15;;;420.27;;
57231;SDS011;43488;46.934;8.276;2022-10-31T16:00:26;641.72;;;421.65;;
57231;SDS011;43488;46.934;8.276;2022-10-31T16:05:50;623.65;;;407.80;;
57231;SDS011;43488;46.934;8.276;2022-10-31T16:10:48;634.08;;;351.90;;
57231;SDS011;43488;46.934;8.276;2022-10-31T16:13:15;629.03;;;344.48;;
57231;SDS011;43488;46.934;8.276;2022-10-31T16:15:48;627.83;;;342.17;;
57231;SDS011;43488;46.934;8.276;2022-10-31T16:18:19;625.58;;;412.27;;
57231;SDS011;43488;46.934;8.276;2022-10-31T16:20:50;635.83;;;348.58;;
57231;SDS011;43488;46.934;8.276;2022-10-31T16:23:24;632.05;;;344.95;;
57231;SDS011;43488;46.934;8.276;2022-10-31T16:25:52;622.97;;;333.58;;
57231;SDS011;43488;46.934;8.276;2022-10-31T16:28:20;633.85;;;342.05;;
57231;SDS011;43488;46.934;8.276;2022-10-31T16:30:53;630.20;;;414.08;;
57231;SDS011;43488;46.934;8.276;2022-10-31T16:38:59;629.00;;;340.10;;
57231;SDS011;43488;46.934;8.276;2022-10-31T16:41:26;630.78;;;337.52;;
57231;SDS011;43488;46.934;8.276;2022-10-31T16:43:54;626.55;;;410.23;;
57231;SDS011;43488;46.934;8.276;2022-10-31T16:46:22;622.25;;;329.10;;
57231;SDS011;43488;46.934;8.276;2022-10-31T16:48:52;625.45;;;336.80;;
57231;SDS011;43488;46.934;8.276;2022-10-31T16:51:20;616.63;;;322.83;;
57231;SDS011;43488;46.934;8.276;2022-10-31T16:53:50;608.55;;;394.33;;
57231;SDS011;43488;46.934;8.276;2022-10-31T16:56:25;608.70;;;388.88;;
57231;SDS011;43488;46.934;8.276;2022-10-31T16:58:57;622.35;;;333.50;;
57231;SDS011;43488;46.934;8.276;2022-10-31T17:01:28;619.13;;;398.05;;